Terminal Aerodrome Forecast
Issued by NWS Sioux Falls, SD

Home | Current Version | Previous Version | Graphics & Text | Print | Product List | Glossary Off
Versions: 1 2 3 4 5 6 7 8 9 10 11 12 13 14 15 16 17 18 19 20

000
FTUS43 KFSD 290544
TAFSUX
TAF
KSUX 290544Z 2906/3006 28006KT P6SM SCT050
     FM291300 VRB03KT P6SM SKC
     FM292100 15004KT P6SM SKC
     FM300400 11004KT P6SM SCT100=

USA.gov is the U.S. government's official web portal to all federal, state and local government web resources and services.